Time;durP1;ratioP1;P1;durP2;ratioP2;P2;SDS_P1;SDS_P2;PMS_P1;PMS_P2;Temp;Humidity;BMP_temperature;BMP_pressure;BME280_temperature;BME280_humidity;BME280_pressure;Samples;Min_cycle;Max_cycle;Signal;HPM_P1;HPM_P2
2022/08/31 00:05:00;;;;;;;1.52;0.50;;;19.10;75.30;;;;;;5022603;28;20091;-58
2022/08/31 00:07:30;;;;;;;2.28;0.85;;;19.00;75.30;;;;;;5015978;28;20428;-58
2022/08/31 00:09:56;;;;;;;2.42;0.90;;;19.00;75.60;;;;;;5034195;28;20366;-58
2022/08/31 00:12:22;;;;;;;1.45;0.80;;;19.00;75.80;;;;;;5033612;28;20401;-58
2022/08/31 00:14:48;;;;;;;1.65;0.90;;;19.00;75.90;;;;;;5033830;28;20029;-58
2022/08/31 00:17:14;;;;;;;1.08;0.63;;;19.00;75.80;;;;;;5033403;28;20446;-58
2022/08/31 00:19:40;;;;;;;1.67;0.80;;;19.00;75.90;;;;;;5033577;28;20029;-58
2022/08/31 00:22:05;;;;;;;1.52;0.90;;;19.00;76.00;;;;;;5031530;28;20095;-58
2022/08/31 00:24:42;;;;;;;2.00;0.80;;;18.90;76.00;;;;;;5033487;28;20033;-58
2022/08/31 00:28:02;;;;;;;1.40;0.82;;;18.90;76.30;;;;;;5033159;28;20041;-58
2022/08/31 00:30:28;;;;;;;3.75;0.80;;;18.90;76.50;;;;;;5014029;28;20049;-58
2022/08/31 00:32:54;;;;;;;1.73;1.13;;;18.80;76.70;;;;;;5033336;28;20052;-58
2022/08/31 00:35:19;;;;;;;1.10;0.80;;;18.80;76.70;;;;;;5032958;28;20061;-58
2022/08/31 00:37:45;;;;;;;3.40;1.00;;;18.80;77.50;;;;;;5032278;28;20473;-58
2022/08/31 00:40:11;;;;;;;1.17;0.63;;;18.70;77.20;;;;;;5033038;28;20029;-58
2022/08/31 00:42:36;;;;;;;2.60;0.85;;;18.70;77.40;;;;;;5033219;28;20032;-58
2022/08/31 00:45:04;;;;;;;2.00;0.80;;;18.70;77.40;;;;;;5032548;28;20036;-58
2022/08/31 00:47:29;;;;;;;1.65;0.90;;;18.70;77.50;;;;;;5033084;28;20086;-58
2022/08/31 00:49:55;;;;;;;1.77;0.70;;;18.60;77.50;;;;;;5033142;28;20481;-58
2022/08/31 00:52:28;;;;;;;2.78;0.95;;;18.60;77.70;;;;;;5032966;28;20036;-58
2022/08/31 00:55:02;;;;;;;1.38;0.90;;;18.60;77.80;;;;;;5021468;28;20021;-58
2022/08/31 00:57:31;;;;;;;3.38;1.02;;;18.60;78.00;;;;;;5032758;28;20511;-58
2022/08/31 00:59:59;;;;;;;;;;;18.50;78.00;;;;;;5033059;28;20025;-58
2022/08/31 01:02:24;;;;;;;6.18;0.90;;;18.40;78.00;;;;;;5033402;28;19909;-58
2022/08/31 01:04:50;;;;;;;1.30;0.80;;;18.40;78.40;;;;;;5033305;28;20037;-58
2022/08/31 01:07:15;;;;;;;1.05;0.93;;;18.40;78.30;;;;;;5030725;28;20029;-58
2022/08/31 01:09:42;;;;;;;2.00;1.00;;;18.40;78.30;;;;;;5032938;28;20029;-58
2022/08/31 01:12:21;;;;;;;1.90;0.90;;;18.40;78.50;;;;;;5031841;28;20424;-58
2022/08/31 01:14:46;;;;;;;1.45;0.77;;;18.40;78.60;;;;;;5027813;28;20021;-58
2022/08/31 01:17:13;;;;;;;1.80;0.77;;;18.30;78.80;;;;;;5031306;28;20500;-58
2022/08/31 01:19:44;;;;;;;1.50;1.00;;;18.30;79.00;;;;;;5032555;28;20049;-58
2022/08/31 01:22:31;;;;;;;1.80;0.90;;;18.30;79.00;;;;;;5032412;28;20496;-58
2022/08/31 01:24:58;;;;;;;1.30;0.60;;;18.30;78.90;;;;;;5032356;28;20052;-58
2022/08/31 01:27:27;;;;;;;2.30;0.88;;;18.30;79.20;;;;;;5032777;28;20370;-58
2022/08/31 01:29:53;;;;;;;3.20;1.05;;;18.30;79.30;;;;;;5031934;28;20080;-58
2022/08/31 01:32:18;;;;;;;2.88;0.80;;;18.20;79.40;;;;;;5032401;28;20061;-58
2022/08/31 01:34:44;;;;;;;1.98;1.00;;;18.20;79.60;;;;;;5032615;28;20053;-58
2022/08/31 01:37:10;;;;;;;2.83;0.70;;;18.10;79.50;;;;;;5031608;28;20124;-58
2022/08/31 01:39:36;;;;;;;3.83;0.90;;;18.10;79.70;;;;;;5032127;28;20057;-58
2022/08/31 01:42:01;;;;;;;2.15;0.90;;;18.10;79.80;;;;;;5032051;28;20058;-58
2022/08/31 01:44:27;;;;;;;3.55;0.90;;;18.10;79.80;;;;;;5032105;28;20037;-58
2022/08/31 01:46:53;;;;;;;1.20;0.63;;;18.00;79.80;;;;;;5031026;28;20017;-58
2022/08/31 01:49:21;;;;;;;2.70;0.90;;;18.00;80.00;;;;;;5031920;28;20537;-58
2022/08/31 01:51:49;;;;;;;2.53;1.20;;;18.00;80.10;;;;;;5032463;28;20413;-58
2022/08/31 01:54:15;;;;;;;2.63;1.00;;;18.00;80.20;;;;;;5031791;28;20087;-58
2022/08/31 01:56:45;;;;;;;2.60;1.00;;;17.90;80.20;;;;;;5032286;28;20017;-58
2022/08/31 01:59:13;;;;;;;2.13;0.93;;;17.90;80.20;;;;;;5032179;28;20064;-59
2022/08/31 02:01:44;;;;;;;2.75;0.93;;;17.90;80.40;;;;;;5032342;28;20045;-58
2022/08/31 02:04:13;;;;;;;2.17;1.10;;;17.80;80.40;;;;;;5031932;28;20477;-58
2022/08/31 02:06:44;;;;;;;1.88;0.95;;;17.80;80.60;;;;;;5032210;28;20501;-58
2022/08/31 02:09:10;;;;;;;2.17;1.27;;;17.80;80.70;;;;;;5030401;28;20029;-58
2022/08/31 02:11:36;;;;;;;2.30;1.20;;;17.70;80.90;;;;;;5032575;28;20063;-58
2022/08/31 02:14:02;;;;;;;4.45;0.88;;;17.70;80.80;;;;;;5031702;28;20496;-58
2022/08/31 02:16:28;;;;;;;1.83;0.80;;;17.60;80.90;;;;;;5032088;28;20044;-58
2022/08/31 02:18:53;;;;;;;1.30;0.75;;;17.60;80.90;;;;;;5031727;28;20124;-58
2022/08/31 02:21:19;;;;;;;4.13;0.85;;;17.60;80.90;;;;;;5031333;28;20021;-58
2022/08/31 02:23:45;;;;;;;1.20;0.60;;;17.50;80.80;;;;;;5031095;28;20014;-58
2022/08/31 02:26:10;;;;;;;2.38;1.48;;;17.60;80.90;;;;;;5031971;28;20083;-58
2022/08/31 02:28:36;;;;;;;1.95;0.98;;;17.50;80.80;;;;;;5030084;28;20061;-58
2022/08/31 02:31:02;;;;;;;1.75;1.00;;;17.50;80.80;;;;;;5031987;28;20026;-58
2022/08/31 02:33:28;;;;;;;2.40;0.85;;;17.50;80.80;;;;;;5031620;28;20057;-58
2022/08/31 02:35:54;;;;;;;2.22;0.90;;;17.50;81.00;;;;;;5031941;28;20060;-58
2022/08/31 02:38:21;;;;;;;1.73;0.85;;;17.40;81.00;;;;;;5031509;28;20057;-58
2022/08/31 02:40:48;;;;;;;1.33;0.70;;;17.40;81.10;;;;;;5031978;28;20024;-58
2022/08/31 02:43:13;;;;;;;1.10;0.75;;;17.40;81.10;;;;;;5031599;28;20480;-58
2022/08/31 02:45:39;;;;;;;2.25;1.05;;;17.30;81.00;;;;;;5031473;28;20026;-58
2022/08/31 02:48:06;;;;;;;1.80;0.82;;;17.30;81.00;;;;;;5030657;28;20025;-58
2022/08/31 02:50:32;;;;;;;2.65;0.75;;;17.30;81.00;;;;;;5031424;28;20116;-58
2022/08/31 02:52:58;;;;;;;1.60;0.77;;;17.30;81.00;;;;;;5031750;28;20517;-58
2022/08/31 02:55:27;;;;;;;2.20;0.90;;;17.20;80.90;;;;;;5029980;28;20036;-58
2022/08/31 02:57:52;;;;;;;1.48;0.80;;;17.20;81.00;;;;;;5031957;28;20100;-58
2022/08/31 03:00:20;;;;;;;1.13;0.80;;;17.20;81.00;;;;;;5026912;28;20101;-58
2022/08/31 03:02:46;;;;;;;1.23;0.73;;;17.20;81.00;;;;;;5025688;28;20049;-58
2022/08/31 03:05:12;;;;;;;2.88;0.60;;;17.10;80.90;;;;;;5035109;28;20022;-58
2022/08/31 03:07:38;;;;;;;1.15;0.60;;;17.10;80.90;;;;;;5035003;28;20451;-58
2022/08/31 03:10:06;;;;;;;2.90;0.77;;;17.10;80.80;;;;;;5034795;28;20555;-58
2022/08/31 03:12:33;;;;;;;2.03;0.70;;;17.10;80.70;;;;;;5035359;28;20104;-58
2022/08/31 03:14:58;;;;;;;1.42;0.73;;;17.10;80.60;;;;;;5035053;28;20028;-58
2022/08/31 03:17:24;;;;;;;1.40;0.70;;;17.00;80.50;;;;;;5034595;28;20033;-58
2022/08/31 03:19:49;;;;;;;1.88;0.80;;;17.00;80.50;;;;;;5034440;28;20100;-58
2022/08/31 03:22:15;;;;;;;1.25;0.73;;;17.00;80.40;;;;;;5035197;28;20044;-58
2022/08/31 03:24:42;;;;;;;0.95;0.70;;;16.90;80.30;;;;;;5034770;28;20021;-58
2022/08/31 03:27:08;;;;;;;1.17;0.60;;;16.90;80.30;;;;;;5034709;28;20021;-58
2022/08/31 03:29:33;;;;;;;2.75;0.60;;;16.90;80.10;;;;;;5034134;28;20579;-58
2022/08/31 03:32:00;;;;;;;1.33;0.60;;;16.90;80.00;;;;;;5033388;28;20075;-58
2022/08/31 03:34:26;;;;;;;2.60;0.82;;;16.90;80.00;;;;;;5033258;28;20388;-58
2022/08/31 03:36:51;;;;;;;1.00;0.60;;;16.90;79.80;;;;;;5034341;28;20108;-59
2022/08/31 03:39:17;;;;;;;1.40;0.75;;;16.80;79.60;;;;;;5034115;28;20022;-58
2022/08/31 03:41:42;;;;;;;2.13;0.60;;;16.80;79.60;;;;;;5034712;28;20017;-58
2022/08/31 03:44:08;;;;;;;0.70;0.47;;;16.70;79.40;;;;;;5033942;28;20062;-58
2022/08/31 03:46:34;;;;;;;2.10;0.63;;;16.70;79.40;;;;;;5034602;28;20436;-58
2022/08/31 03:49:02;;;;;;;1.77;0.80;;;16.70;79.30;;;;;;5033861;28;20025;-58
2022/08/31 03:51:28;;;;;;;1.70;0.57;;;16.70;79.20;;;;;;5034309;28;20033;-59
2022/08/31 03:53:54;;;;;;;1.40;0.70;;;16.60;79.20;;;;;;5034030;28;20026;-58
2022/08/31 03:56:20;;;;;;;1.33;0.60;;;16.60;79.20;;;;;;5034025;28;20056;-58
2022/08/31 03:58:45;;;;;;;3.05;0.70;;;16.50;79.10;;;;;;5033820;28;20034;-58
2022/08/31 04:01:12;;;;;;;2.28;0.70;;;16.50;79.10;;;;;;5034175;28;20072;-58
2022/08/31 04:03:38;;;;;;;1.38;0.77;;;16.40;79.10;;;;;;5034097;28;20416;-58
2022/08/31 04:06:11;;;;;;;1.73;0.75;;;16.40;79.10;;;;;;5033825;28;20034;-58
2022/08/31 04:08:37;;;;;;;1.27;0.80;;;16.40;79.10;;;;;;5033911;28;20104;-58
2022/08/31 04:11:12;;;;;;;1.50;0.60;;;16.30;79.20;;;;;;5033909;28;20441;-58
2022/08/31 04:13:39;;;;;;;1.20;0.70;;;16.30;79.10;;;;;;5021870;28;20029;-58
2022/08/31 04:16:08;;;;;;;2.00;0.80;;;16.30;79.30;;;;;;5033587;28;20109;-58
2022/08/31 04:18:35;;;;;;;1.23;0.60;;;16.30;79.30;;;;;;5032593;28;20104;-58
2022/08/31 04:21:04;;;;;;;2.45;1.00;;;16.20;79.30;;;;;;5033808;28;20439;-58
2022/08/31 04:23:30;;;;;;;2.88;0.60;;;16.20;79.30;;;;;;5020979;28;20021;-58
2022/08/31 04:25:56;;;;;;;1.10;0.82;;;16.10;79.30;;;;;;5033184;28;20021;-58
2022/08/31 04:28:23;;;;;;;1.42;0.60;;;16.10;79.30;;;;;;5031935;28;20033;-58
2022/08/31 04:30:49;;;;;;;2.45;0.88;;;16.10;79.40;;;;;;5031739;28;20447;-58
2022/08/31 04:33:16;;;;;;;1.08;0.60;;;16.10;79.40;;;;;;5032448;28;20547;-58
2022/08/31 04:35:42;;;;;;;1.00;0.50;;;16.10;79.40;;;;;;5032742;28;20030;-58
2022/08/31 04:38:09;;;;;;;1.42;0.70;;;16.00;79.40;;;;;;5033129;28;20026;-58
2022/08/31 04:40:39;;;;;;;1.30;0.80;;;16.00;79.30;;;;;;5032626;28;20539;-58
2022/08/31 04:43:04;;;;;;;1.30;0.50;;;16.00;79.20;;;;;;5033017;28;20048;-58
2022/08/31 04:45:30;;;;;;;1.85;0.50;;;16.00;79.10;;;;;;5033016;28;20037;-58
2022/08/31 04:48:01;;;;;;;1.58;0.70;;;16.00;79.10;;;;;;5033504;28;20045;-58
2022/08/31 04:50:26;;;;;;;1.02;0.47;;;16.00;79.00;;;;;;5031590;28;20027;-58
2022/08/31 04:52:52;;;;;;;2.38;0.60;;;15.90;78.90;;;;;;5033140;28;20096;-58
2022/08/31 04:55:17;;;;;;;1.10;0.65;;;15.90;79.00;;;;;;5032672;28;20109;-58
2022/08/31 04:57:43;;;;;;;1.42;0.70;;;15.90;78.90;;;;;;5032082;28;20107;-58
2022/08/31 05:00:09;;;;;;;1.52;0.60;;;15.90;79.00;;;;;;5032516;28;20139;-58
2022/08/31 05:02:35;;;;;;;1.05;0.65;;;15.80;78.90;;;;;;5033177;28;20017;-58
2022/08/31 05:05:03;;;;;;;1.38;0.50;;;15.80;78.90;;;;;;5032667;28;20021;-58
2022/08/31 05:07:28;;;;;;;1.00;0.50;;;15.80;78.90;;;;;;5032499;28;20108;-58
2022/08/31 05:09:54;;;;;;;1.13;0.70;;;15.80;78.90;;;;;;5032475;28;20096;-58
2022/08/31 05:12:19;;;;;;;1.48;0.70;;;15.80;78.90;;;;;;5032321;28;20083;-58
2022/08/31 05:14:46;;;;;;;1.45;0.60;;;15.80;78.90;;;;;;5032436;28;20044;-58
2022/08/31 05:17:12;;;;;;;1.33;0.65;;;15.70;78.80;;;;;;5032162;28;20036;-58
2022/08/31 05:19:38;;;;;;;0.77;0.43;;;15.80;78.80;;;;;;5032512;28;20394;-58
2022/08/31 05:22:22;;;;;;;;;;;;;;;;;;;;;
2022/08/31 05:24:48;;;;;;;2.35;0.65;;;15.80;78.60;;;;;;5031084;28;20025;-58
2022/08/31 05:27:14;;;;;;;1.52;0.70;;;15.70;78.50;;;;;;5031263;28;20112;-58
2022/08/31 05:29:48;;;;;;;1.77;0.73;;;15.80;78.50;;;;;;5032033;28;20049;-58
2022/08/31 05:32:14;;;;;;;2.28;0.60;;;15.70;78.30;;;;;;5032964;28;20496;-58
2022/08/31 05:34:39;;;;;;;1.33;0.50;;;15.70;78.40;;;;;;5032292;28;20022;-58
2022/08/31 05:37:05;;;;;;;1.67;0.80;;;15.70;78.30;;;;;;5032414;28;20041;-58
2022/08/31 05:39:32;;;;;;;2.13;0.70;;;15.70;78.20;;;;;;5014441;28;20022;-58
2022/08/31 05:41:57;;;;;;;2.20;0.70;;;15.70;78.20;;;;;;5028092;28;20451;-58
2022/08/31 05:44:23;;;;;;;1.88;0.77;;;15.80;78.20;;;;;;5032133;28;20014;-58
2022/08/31 05:46:49;;;;;;;1.30;0.50;;;15.80;78.20;;;;;;5032394;28;20033;-58
2022/08/31 05:49:15;;;;;;;2.40;0.73;;;15.70;78.10;;;;;;5031656;28;20099;-58
2022/08/31 05:51:40;;;;;;;1.73;0.70;;;15.80;78.20;;;;;;5032149;28;20026;-58
2022/08/31 05:54:07;;;;;;;2.80;0.65;;;15.80;78.10;;;;;;5032215;28;20040;-58
2022/08/31 05:56:33;;;;;;;1.15;0.60;;;15.80;78.00;;;;;;5031863;28;20024;-58
2022/08/31 05:58:59;;;;;;;2.15;0.57;;;15.80;78.00;;;;;;5031919;28;20469;-58
2022/08/31 06:01:30;;;;;;;1.23;0.60;;;15.80;77.80;;;;;;5032340;28;20083;-58
2022/08/31 06:03:57;;;;;;;2.33;0.60;;;15.80;77.70;;;;;;5032157;28;20018;-58
2022/08/31 06:06:24;;;;;;;3.08;0.77;;;15.80;77.70;;;;;;5032106;28;20096;-58
2022/08/31 06:08:50;;;;;;;2.13;0.65;;;15.80;77.70;;;;;;5020392;28;20388;-58
2022/08/31 06:11:20;;;;;;;1.13;0.60;;;15.90;77.80;;;;;;5032432;28;20478;-58
2022/08/31 06:13:57;;;;;;;1.77;0.70;;;15.90;77.80;;;;;;5032018;28;20469;-58
2022/08/31 06:16:23;;;;;;;2.25;0.57;;;15.90;77.80;;;;;;5032084;28;20037;-58
2022/08/31 06:19:05;;;;;;;1.73;0.50;;;15.90;77.80;;;;;;5031861;28;20029;-58
2022/08/31 06:21:33;;;;;;;2.05;0.50;;;16.00;77.70;;;;;;5030206;28;20100;-58
2022/08/31 06:24:00;;;;;;;1.70;0.70;;;16.00;77.60;;;;;;5032113;28;20446;-58
2022/08/31 06:26:28;;;;;;;1.52;0.47;;;16.00;77.50;;;;;;5030052;28;20043;-58
2022/08/31 06:29:19;;;;;;;1.80;0.60;;;16.00;77.30;;;;;;5030871;28;20073;-58
2022/08/31 06:31:48;;;;;;;2.25;0.60;;;16.00;77.20;;;;;;5045004;28;20025;-58
2022/08/31 06:34:18;;;;;;;1.27;0.55;;;16.00;77.20;;;;;;5031766;28;20045;-58
2022/08/31 06:36:45;;;;;;;3.05;0.52;;;16.00;77.10;;;;;;5035450;28;20462;-58
2022/08/31 06:39:23;;;;;;;1.63;0.55;;;16.00;77.10;;;;;;5035325;28;20531;-57
2022/08/31 06:41:51;;;;;;;3.63;0.75;;;16.10;77.00;;;;;;5032661;28;20436;-58
2022/08/31 06:44:19;;;;;;;2.28;0.43;;;16.10;77.60;;;;;;5034570;28;20017;-58
2022/08/31 06:46:45;;;;;;;1.60;0.50;;;16.10;76.90;;;;;;5034026;28;20017;-58
2022/08/31 06:49:11;;;;;;;1.50;0.52;;;16.20;77.10;;;;;;5033979;28;20048;-58
2022/08/31 06:51:37;;;;;;;1.48;0.70;;;16.10;76.90;;;;;;5034154;28;20366;-58
2022/08/31 06:54:09;;;;;;;1.35;0.70;;;16.20;76.80;;;;;;5033128;28;20025;-58
2022/08/31 06:57:09;;;;;;;1.65;0.63;;;16.20;76.60;;;;;;5031701;28;20026;-58
2022/08/31 06:59:34;;;;;;;1.58;0.70;;;16.30;76.30;;;;;;5012469;28;20025;-58
2022/08/31 07:02:00;;;;;;;1.30;0.60;;;16.20;76.40;;;;;;5034344;28;20104;-58
2022/08/31 07:04:31;;;;;;;2.85;0.80;;;16.30;76.30;;;;;;5034655;28;20068;-58
2022/08/31 07:06:56;;;;;;;2.25;0.70;;;16.30;76.20;;;;;;5025531;28;20417;-58
2022/08/31 07:09:22;;;;;;;1.85;0.50;;;16.30;75.90;;;;;;5029299;28;20121;-58
2022/08/31 07:11:51;;;;;;;1.00;0.55;;;16.30;75.90;;;;;;5033644;28;20059;-58
2022/08/31 07:14:20;;;;;;;2.72;0.55;;;16.30;76.00;;;;;;5033567;28;20418;-58
2022/08/31 07:17:08;;;;;;;1.73;0.65;;;16.40;76.00;;;;;;5032890;28;20055;-58
2022/08/31 07:19:34;;;;;;;1.17;0.60;;;16.50;75.90;;;;;;5033480;28;20078;-58
2022/08/31 07:22:00;;;;;;;2.63;0.50;;;16.50;76.10;;;;;;5030448;28;20026;-58
2022/08/31 07:24:29;;;;;;;4.10;0.50;;;16.60;76.10;;;;;;5032867;28;20423;-58
2022/08/31 07:26:57;;;;;;;1.15;0.60;;;16.60;76.00;;;;;;5034154;28;20136;-58
2022/08/31 07:29:25;;;;;;;1.40;0.70;;;16.70;76.10;;;;;;5033735;28;20092;-59
2022/08/31 07:31:51;;;;;;;1.30;0.60;;;16.80;76.20;;;;;;5034471;28;20078;-58
2022/08/31 07:34:20;;;;;;;2.05;0.70;;;16.90;76.20;;;;;;5033988;28;20112;-58
2022/08/31 07:42:28;;;;;;;1.73;0.70;;;17.00;76.20;;;;;;5032749;28;20102;-58
2022/08/31 07:44:56;;;;;;;1.65;0.70;;;17.10;76.10;;;;;;5032507;28;20116;-58
2022/08/31 07:47:24;;;;;;;2.13;1.05;;;17.20;76.30;;;;;;5031990;28;20021;-58
2022/08/31 07:49:51;;;;;;;1.50;0.80;;;17.20;76.00;;;;;;5032879;28;20160;-58
2022/08/31 07:52:20;;;;;;;1.67;0.70;;;17.30;75.90;;;;;;5031821;28;20079;-58
2022/08/31 07:54:47;;;;;;;2.60;0.85;;;17.40;75.80;;;;;;5032755;28;20017;-58
2022/08/31 07:57:12;;;;;;;0.85;0.60;;;17.40;75.50;;;;;;5033238;28;20164;-58
2022/08/31 08:02:45;;;;;;;1.60;0.77;;;17.50;75.60;;;;;;5031417;28;20042;-57
2022/08/31 08:05:19;;;;;;;2.10;0.70;;;17.50;75.50;;;;;;5033105;28;20373;-58
2022/08/31 08:07:49;;;;;;;1.35;0.73;;;17.60;75.30;;;;;;5025883;28;20029;-58
2022/08/31 08:10:17;;;;;;;1.27;0.73;;;17.60;75.30;;;;;;5020613;28;20602;-58
2022/08/31 08:12:47;;;;;;;1.27;0.65;;;17.70;75.40;;;;;;5032911;28;20032;-58
2022/08/31 08:15:13;;;;;;;2.33;0.90;;;17.70;75.30;;;;;;5033448;28;20033;-57
2022/08/31 08:17:39;;;;;;;2.45;0.90;;;17.80;75.30;;;;;;5033690;28;20436;-58
2022/08/31 08:20:06;;;;;;;1.25;0.77;;;17.90;75.40;;;;;;5033559;28;20017;-58
2022/08/31 08:22:31;;;;;;;1.98;0.75;;;18.00;75.30;;;;;;5033945;28;20021;-57
2022/08/31 08:25:39;;;;;;;;;;;;;;;;;;;;;
2022/08/31 08:28:06;;;;;;;1.92;0.70;;;18.20;75.20;;;;;;5029595;28;20048;-58
2022/08/31 08:30:32;;;;;;;1.90;0.63;;;18.20;75.40;;;;;;5031912;28;20040;-58
2022/08/31 08:33:02;;;;;;;1.38;0.70;;;18.30;75.40;;;;;;5031769;28;20104;-58
2022/08/31 08:35:40;;;;;;;2.88;0.95;;;18.40;75.30;;;;;;5032271;28;20033;-58
2022/08/31 08:38:13;;;;;;;1.65;0.90;;;18.40;75.20;;;;;;5045760;28;20030;-57
2022/08/31 08:40:41;;;;;;;1.35;0.73;;;18.50;75.30;;;;;;5032967;28;20030;-58
2022/08/31 08:43:19;;;;;;;1.90;0.75;;;18.50;75.10;;;;;;5033320;28;20026;-58
2022/08/31 08:46:13;;;;;;;;;;;;;;;;;;;;;
2022/08/31 08:48:42;;;;;;;2.22;0.90;;;18.60;75.00;;;;;;5032893;28;20107;-58
2022/08/31 08:51:16;;;;;;;2.33;0.83;;;18.70;75.20;;;;;;5032180;28;20032;-58
2022/08/31 08:53:45;;;;;;;2.03;1.10;;;18.80;75.10;;;;;;5031602;28;20025;-58
2022/08/31 08:56:12;;;;;;;4.87;1.00;;;18.90;75.10;;;;;;5031565;28;20084;-57
2022/08/31 08:58:42;;;;;;;1.65;0.82;;;18.90;75.80;;;;;;5029863;28;20263;-58
2022/08/31 09:01:12;;;;;;;2.08;1.08;;;19.00;75.10;;;;;;5032964;28;20018;-58
2022/08/31 09:03:49;;;;;;;2.10;0.95;;;19.10;74.90;;;;;;5033153;28;20561;-58
2022/08/31 09:06:39;;;;;;;3.30;1.10;;;19.20;74.90;;;;;;5032289;28;20037;-58
2022/08/31 09:09:24;;;;;;;3.63;1.23;;;19.20;75.00;;;;;;5032502;28;20040;-57
2022/08/31 09:12:22;;;;;;;2.08;1.10;;;19.30;74.80;;;;;;5013370;28;20025;-58
2022/08/31 09:15:17;;;;;;;1.70;1.17;;;19.40;74.50;;;;;;5031457;28;20021;-58
2022/08/31 09:18:00;;;;;;;1.77;0.88;;;19.60;74.20;;;;;;5030653;28;20272;-58
2022/08/31 09:20:27;;;;;;;5.40;1.27;;;19.70;73.60;;;;;;5029392;28;20013;-58
2022/08/31 09:22:54;;;;;;;3.67;1.10;;;19.80;73.80;;;;;;5032682;28;20021;-58
2022/08/31 09:25:36;;;;;;;1.75;0.80;;;20.00;73.80;;;;;;5031013;28;20525;-58
2022/08/31 09:28:06;;;;;;;2.97;1.35;;;20.10;73.30;;;;;;5032564;28;20029;-58
2022/08/31 09:30:44;;;;;;;2.38;1.20;;;20.30;73.20;;;;;;5036007;28;20033;-58
2022/08/31 09:33:33;;;;;;;3.60;1.30;;;20.40;72.40;;;;;;5032115;28;20030;-58
2022/08/31 09:36:20;;;;;;;3.17;1.10;;;20.60;71.90;;;;;;5032319;28;20418;-58
2022/08/31 09:39:01;;;;;;;2.72;1.10;;;20.70;71.90;;;;;;5032814;28;20022;-58
2022/08/31 09:41:31;;;;;;;2.08;1.10;;;20.80;71.50;;;;;;5030283;28;20076;-58
2022/08/31 09:44:38;;;;;;;2.60;1.15;;;20.90;71.20;;;;;;5032390;28;20017;-58
2022/08/31 09:47:13;;;;;;;2.50;1.15;;;21.00;71.20;;;;;;4990210;28;20058;-58
2022/08/31 09:49:44;;;;;;;1.88;1.10;;;21.10;71.30;;;;;;4990944;28;20036;-58
2022/08/31 09:55:12;;;;;;;1.33;0.88;;;21.20;70.70;;;;;;5010838;28;20393;-58
2022/08/31 09:55:27;;;;;;;1.90;1.20;;;21.30;69.90;;;;;;5032249;28;20032;-57
2022/08/31 09:58:21;;;;;;;2.38;1.17;;;21.40;69.70;;;;;;5032227;28;20537;-58
2022/08/31 10:00:51;;;;;;;3.50;0.95;;;21.50;69.30;;;;;;5029802;28;20120;-58
2022/08/31 10:03:27;;;;;;;2.17;1.20;;;21.60;69.30;;;;;;5031934;28;20125;-58
2022/08/31 10:05:54;;;;;;;2.50;1.00;;;21.70;68.90;;;;;;5032279;28;20026;-58
2022/08/31 10:08:45;;;;;;;4.18;1.70;;;21.80;68.60;;;;;;5030561;28;20057;-58
2022/08/31 10:11:31;;;;;;;3.80;1.17;;;22.00;68.10;;;;;;5034260;28;20033;-58
2022/08/31 10:14:06;;;;;;;1.85;1.02;;;22.10;67.50;;;;;;5036317;28;20043;-58
2022/08/31 10:16:40;;;;;;;1.92;0.80;;;22.20;67.60;;;;;;5034846;28;20478;-58
2022/08/31 10:19:11;;;;;;;2.50;1.13;;;22.40;67.00;;;;;;5035619;28;20022;-58
2022/08/31 10:21:52;;;;;;;1.63;1.20;;;22.60;66.40;;;;;;5035694;28;20022;-58
2022/08/31 10:24:38;;;;;;;1.88;1.10;;;22.80;66.00;;;;;;5034644;28;20108;-57
2022/08/31 10:27:15;;;;;;;1.40;0.80;;;23.00;65.40;;;;;;5034672;28;20029;-58
2022/08/31 10:30:39;;;;;;;1.55;1.20;;;23.20;65.10;;;;;;5034339;28;20122;-58
2022/08/31 10:35:01;;;;;;;1.50;0.98;;;23.50;64.50;;;;;;5034849;28;20045;-58
2022/08/31 10:36:15;;;;;;;2.05;0.90;;;23.70;63.60;;;;;;5030626;28;20029;-58
2022/08/31 10:38:44;;;;;;;3.17;0.80;;;23.90;63.20;;;;;;5033652;28;20022;-58
2022/08/31 10:41:30;;;;;;;2.50;0.98;;;24.20;62.90;;;;;;5033677;28;20486;-58
2022/08/31 10:43:57;;;;;;;0.88;0.60;;;24.50;61.40;;;;;;5032240;28;20108;-58
2022/08/31 10:46:23;;;;;;;1.83;0.90;;;24.70;61.50;;;;;;5034267;28;20482;-58
2022/08/31 10:48:53;;;;;;;1.35;0.80;;;24.90;60.10;;;;;;5034089;28;20116;-58
2022/08/31 10:51:45;;;;;;;1.60;1.10;;;25.20;59.50;;;;;;5033887;28;20021;-58
2022/08/31 10:54:41;;;;;;;5.75;0.70;;;25.40;58.70;;;;;;5032742;28;20113;-58
2022/08/31 10:57:40;;;;;;;2.17;0.80;;;25.90;59.00;;;;;;5033692;28;20026;-58
2022/08/31 11:03:28;;;;;;;1.27;0.80;;;27.10;55.60;;;;;;5030893;28;20036;-59
2022/08/31 11:06:35;;;;;;;0.90;0.60;;;28.30;53.40;;;;;;5033667;28;20100;-59
2022/08/31 11:09:43;;;;;;;2.92;0.90;;;30.00;51.60;;;;;;5033181;28;20109;-59
2022/08/31 11:12:14;;;;;;;0.73;0.50;;;30.10;49.00;;;;;;4988348;28;20060;-59
2022/08/31 11:14:43;;;;;;;1.35;0.60;;;30.30;48.70;;;;;;4995265;28;20429;-59
2022/08/31 11:17:44;;;;;;;1.05;0.63;;;31.10;48.50;;;;;;5014859;28;20049;-58
2022/08/31 11:20:16;;;;;;;1.25;0.70;;;31.60;47.40;;;;;;5034798;28;20039;-59
2022/08/31 11:23:19;;;;;;;2.80;0.80;;;31.20;46.30;;;;;;5033781;28;20022;-58
2022/08/31 11:26:24;;;;;;;3.38;0.70;;;31.00;46.40;;;;;;5034343;28;20021;-59
2022/08/31 11:29:08;;;;;;;1.98;0.70;;;31.30;46.20;;;;;;5025755;28;20037;-59
2022/08/31 11:34:52;;;;;;;1.00;0.50;;;32.90;44.90;;;;;;5033085;28;20075;-59
2022/08/31 11:37:51;;;;;;;3.30;0.60;;;33.20;43.90;;;;;;5034521;28;20477;-59
2022/08/31 11:40:44;;;;;;;1.00;0.47;;;34.30;43.00;;;;;;5012415;28;20068;-59
2022/08/31 11:43:42;;;;;;;0.93;0.63;;;34.60;41.90;;;;;;5031989;28;20097;-59
2022/08/31 11:46:26;;;;;;;5.40;0.80;;;35.10;41.30;;;;;;5031741;28;20030;-59
2022/08/31 11:48:52;;;;;;;1.00;0.57;;;35.10;40.50;;;;;;5014943;28;20057;-59
2022/08/31 11:51:39;;;;;;;2.70;0.70;;;35.90;40.10;;;;;;5026250;28;20025;-59
2022/08/31 11:54:25;;;;;;;2.78;0.70;;;36.70;39.20;;;;;;5013648;28;20033;-59
2022/08/31 11:56:55;;;;;;;2.03;0.80;;;37.40;38.40;;;;;;5034087;28;20486;-59
2022/08/31 11:59:33;;;;;;;2.55;0.60;;;38.10;37.50;;;;;;5033747;28;20434;-59
2022/08/31 12:02:19;;;;;;;0.80;0.60;;;38.40;37.30;;;;;;5033945;28;20030;-59
2022/08/31 12:04:50;;;;;;;1.10;0.80;;;38.50;36.80;;;;;;5027604;28;20033;-59
2022/08/31 12:07:34;;;;;;;1.40;0.75;;;38.60;36.60;;;;;;5033945;28;20024;-59
2022/08/31 12:10:22;;;;;;;1.42;0.60;;;38.60;36.70;;;;;;5033788;28;20009;-59
2022/08/31 12:13:07;;;;;;;1.33;0.50;;;39.10;36.90;;;;;;5028262;28;20130;-59
2022/08/31 12:16:02;;;;;;;1.73;0.63;;;39.00;35.70;;;;;;5033867;28;20057;-59
2022/08/31 12:18:54;;;;;;;3.85;0.65;;;38.90;35.70;;;;;;5032769;28;20025;-59
2022/08/31 12:24:45;;;;;;;1.05;0.60;;;37.80;35.90;;;;;;5027176;28;20095;-59
2022/08/31 12:27:38;;;;;;;1.08;0.70;;;37.40;36.40;;;;;;5024737;28;20120;-59
2022/08/31 12:30:16;;;;;;;1.63;0.75;;;37.20;36.60;;;;;;5028200;28;20076;-59
2022/08/31 12:32:43;;;;;;;;;;;37.20;36.50;;;;;;5032934;28;20018;-59
2022/08/31 12:35:28;;;;;;;1.17;0.53;;;37.00;36.50;;;;;;5025303;28;19905;-59
2022/08/31 12:38:17;;;;;;;1.88;0.75;;;36.80;36.90;;;;;;5029820;28;20293;-59
2022/08/31 12:41:08;;;;;;;1.25;0.70;;;36.10;36.90;;;;;;5033075;28;20492;-59
2022/08/31 12:44:03;;;;;;;0.90;0.60;;;35.60;37.30;;;;;;5033339;28;20127;-59
2022/08/31 12:46:31;;;;;;;2.00;1.00;;;35.50;38.10;;;;;;5014184;28;20042;-59
2022/08/31 12:49:14;;;;;;;1.00;0.73;;;35.50;38.10;;;;;;5033166;28;20108;-59
2022/08/31 12:52:17;;;;;;;1.60;0.88;;;35.50;38.00;;;;;;5031754;28;20108;-59
2022/08/31 12:55:11;;;;;;;1.50;0.80;;;35.50;37.60;;;;;;5022074;28;20033;-59
2022/08/31 12:58:17;;;;;;;2.35;0.70;;;35.30;37.80;;;;;;5022325;28;20018;-59
2022/08/31 13:00:44;;;;;;;1.48;0.70;;;35.10;38.00;;;;;;5044455;28;20018;-59
2022/08/31 13:03:20;;;;;;;2.80;0.70;;;35.10;38.30;;;;;;5033114;28;20028;-59
2022/08/31 13:06:21;;;;;;;1.75;0.70;;;35.40;38.40;;;;;;5023763;28;20024;-59
2022/08/31 13:08:54;;;;;;;2.08;1.05;;;35.60;38.00;;;;;;5032369;28;20036;-59
2022/08/31 13:11:23;;;;;;;1.85;0.75;;;35.60;37.50;;;;;;5032507;28;20113;-59
2022/08/31 13:13:49;;;;;;;;;;;35.40;37.90;;;;;;5033381;28;20477;-59
2022/08/31 13:16:14;;;;;;;3.08;0.70;;;35.40;37.80;;;;;;5032394;28;19909;-59
2022/08/31 13:18:40;;;;;;;1.40;1.00;;;35.50;37.90;;;;;;5032817;28;20432;-59
2022/08/31 13:21:07;;;;;;;1.48;0.82;;;35.70;37.80;;;;;;5032548;28;20021;-59
2022/08/31 13:23:39;;;;;;;1.73;0.90;;;35.70;37.70;;;;;;5032436;28;20052;-59
2022/08/31 13:26:19;;;;;;;1.45;0.80;;;35.50;37.60;;;;;;5032540;28;20448;-59
2022/08/31 13:29:06;;;;;;;1.33;0.80;;;35.40;37.60;;;;;;5032380;28;20025;-59
2022/08/31 13:31:52;;;;;;;2.15;0.85;;;35.30;37.70;;;;;;5031374;28;20033;-59
2022/08/31 13:34:25;;;;;;;2.15;0.70;;;35.10;37.50;;;;;;5032265;28;20497;-59
2022/08/31 13:36:57;;;;;;;1.00;0.70;;;34.80;38.00;;;;;;5032001;28;20044;-59
2022/08/31 13:39:27;;;;;;;2.05;0.70;;;34.90;38.30;;;;;;5032372;28;20017;-59
2022/08/31 13:42:05;;;;;;;1.20;0.75;;;34.80;38.40;;;;;;5032237;28;20489;-59